sensor_id;sensor_type;location;lat;lon;timestamp;pressure;altitude;pressure_sealevel;temperature;humidity
12785;BME280;6456;42.680;23.260;2023-01-27T00:00:48;93845.38;;;1.62;100.00
12785;BME280;6456;42.680;23.260;2023-01-27T00:03:16;93847.78;;;1.64;100.00
12785;BME280;6456;42.680;23.260;2023-01-27T00:05:44;93860.13;;;1.62;100.00
12785;BME280;6456;42.680;23.260;2023-01-27T00:08:11;93834.72;;;1.43;100.00
12785;BME280;6456;42.680;23.260;2023-01-27T00:10:38;93832.22;;;1.49;100.00
12785;BME280;6456;42.680;23.260;2023-01-27T00:13:05;93814.75;;;1.43;100.00
12785;BME280;6456;42.680;23.260;2023-01-27T00:15:51;93847.22;;;1.54;100.00
12785;BME280;6456;42.680;23.260;2023-01-27T00:18:18;93778.16;;;1.09;100.00
12785;BME280;6456;42.680;23.260;2023-01-27T00:20:45;93831.88;;;1.52;100.00
12785;BME280;6456;42.680;23.260;2023-01-27T00:23:30;93761.28;;;1.13;100.00
12785;BME280;6456;42.680;23.260;2023-01-27T00:26:17;93838.81;;;1.52;100.00
12785;BME280;6456;42.680;23.260;2023-01-27T00:28:45;93735.75;;;1.10;100.00
12785;BME280;6456;42.680;23.260;2023-01-27T00:31:15;93821.56;;;1.59;100.00
12785;BME280;6456;42.680;23.260;2023-01-27T00:33:59;93802.53;;;1.52;100.00
12785;BME280;6456;42.680;23.260;2023-01-27T00:36:33;93761.38;;;1.19;100.00
12785;BME280;6456;42.680;23.260;2023-01-27T00:39:01;93796.81;;;1.42;100.00
12785;BME280;6456;42.680;23.260;2023-01-27T00:41:28;93817.28;;;1.51;100.00
12785;BME280;6456;42.680;23.260;2023-01-27T00:43:55;93747.41;;;1.06;100.00
12785;BME280;6456;42.680;23.260;2023-01-27T00:46:23;93806.91;;;1.37;100.00
12785;BME280;6456;42.680;23.260;2023-01-27T00:48:51;93821.47;;;1.38;100.00
12785;BME280;6456;42.680;23.260;2023-01-27T00:51:18;93767.34;;;1.05;100.00
12785;BME280;6456;42.680;23.260;2023-01-27T00:53:45;93821.22;;;1.47;100.00
12785;BME280;6456;42.680;23.260;2023-01-27T00:56:12;93802.41;;;1.30;100.00
12785;BME280;6456;42.680;23.260;2023-01-27T00:58:39;93812.91;;;1.52;100.00
12785;BME280;6456;42.680;23.260;2023-01-27T01:01:09;93814.16;;;1.56;100.00
12785;BME280;6456;42.680;23.260;2023-01-27T01:03:37;93746.72;;;0.97;100.00
12785;BME280;6456;42.680;23.260;2023-01-27T01:06:06;93764.75;;;1.05;100.00
12785;BME280;6456;42.680;23.260;2023-01-27T01:08:35;93781.56;;;1.09;100.00
12785;BME280;6456;42.680;23.260;2023-01-27T01:11:03;93805.47;;;1.34;100.00
12785;BME280;6456;42.680;23.260;2023-01-27T01:13:30;93763.16;;;1.04;100.00
12785;BME280;6456;42.680;23.260;2023-01-27T01:16:03;93807.78;;;1.44;100.00
12785;BME280;6456;42.680;23.260;2023-01-27T01:18:30;93788.28;;;1.33;100.00
12785;BME280;6456;42.680;23.260;2023-01-27T01:21:00;93734.94;;;1.09;100.00
12785;BME280;6456;42.680;23.260;2023-01-27T01:23:27;93829.28;;;1.67;100.00
12785;BME280;6456;42.680;23.260;2023-01-27T01:25:55;93787.88;;;1.44;100.00
12785;BME280;6456;42.680;23.260;2023-01-27T01:28:23;93801.38;;;1.54;100.00
12785;BME280;6456;42.680;23.260;2023-01-27T01:30:50;93738.63;;;1.29;100.00
12785;BME280;6456;42.680;23.260;2023-01-27T01:33:17;93750.22;;;1.19;100.00
12785;BME280;6456;42.680;23.260;2023-01-27T01:35:44;93780.78;;;1.38;100.00
12785;BME280;6456;42.680;23.260;2023-01-27T01:38:13;93830.53;;;1.71;100.00
12785;BME280;6456;42.680;23.260;2023-01-27T01:40:40;93778.66;;;1.27;100.00
12785;BME280;6456;42.680;23.260;2023-01-27T01:43:12;93838.16;;;1.72;100.00
12785;BME280;6456;42.680;23.260;2023-01-27T01:45:50;93786.25;;;1.43;100.00
12785;BME280;6456;42.680;23.260;2023-01-27T01:48:22;93833.75;;;1.73;100.00
12785;BME280;6456;42.680;23.260;2023-01-27T01:50:54;93780.00;;;1.38;100.00
12785;BME280;6456;42.680;23.260;2023-01-27T01:53:27;93750.75;;;1.29;100.00
12785;BME280;6456;42.680;23.260;2023-01-27T01:56:01;93816.78;;;1.70;100.00
12785;BME280;6456;42.680;23.260;2023-01-27T01:58:31;93786.16;;;1.51;100.00
12785;BME280;6456;42.680;23.260;2023-01-27T02:01:02;93745.78;;;1.27;100.00
12785;BME280;6456;42.680;23.260;2023-01-27T02:03:29;93742.03;;;1.30;100.00
12785;BME280;6456;42.680;23.260;2023-01-27T02:05:59;93793.06;;;1.73;100.00
12785;BME280;6456;42.680;23.260;2023-01-27T02:08:30;93779.75;;;1.62;100.00
12785;BME280;6456;42.680;23.260;2023-01-27T02:10:59;93783.94;;;1.48;100.00
12785;BME280;6456;42.680;23.260;2023-01-27T02:13:26;93725.97;;;0.97;100.00
12785;BME280;6456;42.680;23.260;2023-01-27T02:15:53;93736.78;;;1.15;100.00
12785;BME280;6456;42.680;23.260;2023-01-27T02:18:21;93762.03;;;1.51;100.00
12785;BME280;6456;42.680;23.260;2023-01-27T02:20:49;93686.25;;;1.05;100.00
12785;BME280;6456;42.680;23.260;2023-01-27T02:26:28;93711.28;;;1.27;100.00
12785;BME280;6456;42.680;23.260;2023-01-27T02:28:57;93691.78;;;1.02;100.00
12785;BME280;6456;42.680;23.260;2023-01-27T02:31:25;93750.69;;;1.52;100.00
12785;BME280;6456;42.680;23.260;2023-01-27T02:33:56;93743.63;;;1.46;100.00
12785;BME280;6456;42.680;23.260;2023-01-27T02:36:26;93760.16;;;1.59;100.00
12785;BME280;6456;42.680;23.260;2023-01-27T02:38:56;93693.41;;;1.17;100.00
12785;BME280;6456;42.680;23.260;2023-01-27T02:41:28;93718.31;;;1.33;100.00
12785;BME280;6456;42.680;23.260;2023-01-27T02:43:57;93718.22;;;1.41;100.00
12785;BME280;6456;42.680;23.260;2023-01-27T02:46:24;93734.66;;;1.48;100.00
12785;BME280;6456;42.680;23.260;2023-01-27T02:48:51;93773.03;;;1.67;100.00
12785;BME280;6456;42.680;23.260;2023-01-27T02:51:18;93758.91;;;1.70;100.00
12785;BME280;6456;42.680;23.260;2023-01-27T02:53:45;93769.72;;;1.73;100.00
12785;BME280;6456;42.680;23.260;2023-01-27T02:56:12;93740.50;;;1.65;100.00
12785;BME280;6456;42.680;23.260;2023-01-27T02:58:40;93755.59;;;1.76;100.00
12785;BME280;6456;42.680;23.260;2023-01-27T03:01:07;93751.75;;;1.72;100.00
12785;BME280;6456;42.680;23.260;2023-01-27T03:03:35;93741.41;;;1.57;100.00
12785;BME280;6456;42.680;23.260;2023-01-27T03:06:11;93737.78;;;1.73;100.00
12785;BME280;6456;42.680;23.260;2023-01-27T03:08:38;93702.41;;;1.51;100.00
12785;BME280;6456;42.680;23.260;2023-01-27T03:11:05;93684.00;;;1.46;100.00
12785;BME280;6456;42.680;23.260;2023-01-27T03:13:32;93753.78;;;1.91;100.00
12785;BME280;6456;42.680;23.260;2023-01-27T03:16:03;93680.50;;;1.53;100.00
12785;BME280;6456;42.680;23.260;2023-01-27T03:18:48;93710.97;;;1.66;100.00
12785;BME280;6456;42.680;23.260;2023-01-27T03:21:16;93711.94;;;1.79;100.00
12785;BME280;6456;42.680;23.260;2023-01-27T03:23:44;93728.47;;;1.93;100.00
12785;BME280;6456;42.680;23.260;2023-01-27T03:26:13;93664.53;;;1.50;100.00
12785;BME280;6456;42.680;23.260;2023-01-27T03:28:40;93729.47;;;1.92;100.00
12785;BME280;6456;42.680;23.260;2023-01-27T03:31:10;93684.63;;;1.62;100.00
12785;BME280;6456;42.680;23.260;2023-01-27T03:33:43;93707.75;;;1.78;100.00
12785;BME280;6456;42.680;23.260;2023-01-27T03:36:12;93665.50;;;1.49;100.00
12785;BME280;6456;42.680;23.260;2023-01-27T03:38:56;93714.97;;;1.83;100.00
12785;BME280;6456;42.680;23.260;2023-01-27T03:41:40;93665.41;;;1.57;100.00
12785;BME280;6456;42.680;23.260;2023-01-27T03:44:24;93706.56;;;1.81;100.00
12785;BME280;6456;42.680;23.260;2023-01-27T03:47:10;93628.34;;;1.27;100.00
12785;BME280;6456;42.680;23.260;2023-01-27T03:49:37;93636.94;;;1.27;100.00
12785;BME280;6456;42.680;23.260;2023-01-27T03:52:04;93675.69;;;1.50;100.00
12785;BME280;6456;42.680;23.260;2023-01-27T03:54:31;93636.50;;;1.09;100.00
12785;BME280;6456;42.680;23.260;2023-01-27T03:56:58;93693.31;;;1.55;100.00
12785;BME280;6456;42.680;23.260;2023-01-27T03:59:30;93708.59;;;1.50;100.00
12785;BME280;6456;42.680;23.260;2023-01-27T04:01:59;93690.88;;;1.53;100.00
12785;BME280;6456;42.680;23.260;2023-01-27T04:04:45;93636.84;;;1.21;100.00
12785;BME280;6456;42.680;23.260;2023-01-27T04:07:30;93682.06;;;1.48;100.00
12785;BME280;6456;42.680;23.260;2023-01-27T04:09:59;93647.56;;;1.33;100.00
12785;BME280;6456;42.680;23.260;2023-01-27T04:12:26;93680.06;;;1.50;100.00
12785;BME280;6456;42.680;23.260;2023-01-27T04:14:52;93729.75;;;1.82;100.00
12785;BME280;6456;42.680;23.260;2023-01-27T04:17:19;93731.19;;;1.85;100.00
12785;BME280;6456;42.680;23.260;2023-01-27T04:19:47;93751.28;;;1.98;100.00
12785;BME280;6456;42.680;23.260;2023-01-27T04:22:14;93728.59;;;1.85;100.00
12785;BME280;6456;42.680;23.260;2023-01-27T04:24:41;93652.91;;;1.31;100.00
12785;BME280;6456;42.680;23.260;2023-01-27T04:27:10;93699.63;;;1.67;100.00
12785;BME280;6456;42.680;23.260;2023-01-27T04:29:39;93751.09;;;1.99;100.00
12785;BME280;6456;42.680;23.260;2023-01-27T04:32:07;93701.00;;;1.63;100.00
12785;BME280;6456;42.680;23.260;2023-01-27T04:34:35;93722.31;;;1.79;100.00
12785;BME280;6456;42.680;23.260;2023-01-27T04:37:04;93724.31;;;1.77;100.00
12785;BME280;6456;42.680;23.260;2023-01-27T04:39:32;93778.69;;;2.21;100.00
12785;BME280;6456;42.680;23.260;2023-01-27T04:41:59;93774.13;;;2.23;100.00
12785;BME280;6456;42.680;23.260;2023-01-27T04:44:26;93764.28;;;2.19;100.00
12785;BME280;6456;42.680;23.260;2023-01-27T04:46:53;93685.16;;;1.58;100.00
12785;BME280;6456;42.680;23.260;2023-01-27T04:49:20;93782.72;;;2.24;100.00
12785;BME280;6456;42.680;23.260;2023-01-27T04:51:47;93717.56;;;1.83;100.00
12785;BME280;6456;42.680;23.260;2023-01-27T04:54:15;93682.44;;;1.66;100.00
12785;BME280;6456;42.680;23.260;2023-01-27T04:56:54;93799.19;;;2.16;100.00
12785;BME280;6456;42.680;23.260;2023-01-27T04:59:21;93805.41;;;2.15;100.00
12785;BME280;6456;42.680;23.260;2023-01-27T05:01:48;93793.19;;;2.16;100.00
12785;BME280;6456;42.680;23.260;2023-01-27T05:04:16;93726.69;;;1.79;100.00
12785;BME280;6456;42.680;23.260;2023-01-27T05:06:43;93722.31;;;1.79;100.00
12785;BME280;6456;42.680;23.260;2023-01-27T05:09:10;93740.91;;;1.83;100.00
12785;BME280;6456;42.680;23.260;2023-01-27T05:11:38;93758.59;;;2.09;100.00
12785;BME280;6456;42.680;23.260;2023-01-27T05:14:10;93781.84;;;2.17;100.00
12785;BME280;6456;42.680;23.260;2023-01-27T05:16:38;93719.13;;;1.77;100.00
12785;BME280;6456;42.680;23.260;2023-01-27T05:19:05;93778.16;;;2.26;100.00
12785;BME280;6456;42.680;23.260;2023-01-27T05:21:32;93778.59;;;2.29;100.00
12785;BME280;6456;42.680;23.260;2023-01-27T05:23:59;93701.94;;;1.76;100.00
12785;BME280;6456;42.680;23.260;2023-01-27T05:26:27;93747.53;;;2.00;100.00
12785;BME280;6456;42.680;23.260;2023-01-27T05:28:57;93742.94;;;2.02;100.00
12785;BME280;6456;42.680;23.260;2023-01-27T05:31:26;93778.34;;;2.24;100.00
12785;BME280;6456;42.680;23.260;2023-01-27T05:33:54;93772.34;;;2.24;100.00
12785;BME280;6456;42.680;23.260;2023-01-27T05:36:23;93764.03;;;2.14;100.00
12785;BME280;6456;42.680;23.260;2023-01-27T05:38:50;93705.03;;;1.86;100.00
12785;BME280;6456;42.680;23.260;2023-01-27T05:41:18;93742.22;;;2.08;100.00
12785;BME280;6456;42.680;23.260;2023-01-27T05:43:49;93752.84;;;2.13;100.00
12785;BME280;6456;42.680;23.260;2023-01-27T05:46:19;93695.94;;;1.76;100.00
12785;BME280;6456;42.680;23.260;2023-01-27T05:48:48;93723.09;;;1.94;100.00
12785;BME280;6456;42.680;23.260;2023-01-27T05:51:16;93744.53;;;2.03;100.00
12785;BME280;6456;42.680;23.260;2023-01-27T05:53:43;93682.56;;;1.58;100.00
12785;BME280;6456;42.680;23.260;2023-01-27T05:56:13;93741.44;;;1.93;100.00
12785;BME280;6456;42.680;23.260;2023-01-27T05:58:40;93705.63;;;1.67;100.00
12785;BME280;6456;42.680;23.260;2023-01-27T06:01:09;93765.13;;;2.05;100.00
12785;BME280;6456;42.680;23.260;2023-01-27T06:03:38;93772.19;;;2.11;100.00
12785;BME280;6456;42.680;23.260;2023-01-27T06:06:06;93761.13;;;2.02;100.00
12785;BME280;6456;42.680;23.260;2023-01-27T06:08:34;93773.78;;;2.12;100.00
12785;BME280;6456;42.680;23.260;2023-01-27T06:11:01;93766.63;;;2.14;100.00
12785;BME280;6456;42.680;23.260;2023-01-27T06:13:29;93772.63;;;2.14;100.00
12785;BME280;6456;42.680;23.260;2023-01-27T06:15:56;93774.69;;;2.19;100.00
12785;BME280;6456;42.680;23.260;2023-01-27T06:18:23;93764.13;;;2.06;100.00
12785;BME280;6456;42.680;23.260;2023-01-27T06:20:51;93745.34;;;2.04;100.00
12785;BME280;6456;42.680;23.260;2023-01-27T06:23:18;93763.97;;;2.07;100.00
12785;BME280;6456;42.680;23.260;2023-01-27T06:25:46;93763.34;;;2.05;100.00
12785;BME280;6456;42.680;23.260;2023-01-27T06:28:14;93777.63;;;2.16;100.00
12785;BME280;6456;42.680;23.260;2023-01-27T06:30:41;93781.28;;;2.21;100.00
12785;BME280;6456;42.680;23.260;2023-01-27T06:33:08;93770.03;;;2.14;100.00
12785;BME280;6456;42.680;23.260;2023-01-27T06:35:37;93783.06;;;2.21;100.00
12785;BME280;6456;42.680;23.260;2023-01-27T06:38:06;93752.59;;;2.08;100.00
12785;BME280;6456;42.680;23.260;2023-01-27T06:40:35;93774.31;;;2.22;100.00
12785;BME280;6456;42.680;23.260;2023-01-27T06:43:02;93759.75;;;2.06;100.00
12785;BME280;6456;42.680;23.260;2023-01-27T06:45:29;93788.66;;;2.18;100.00
12785;BME280;6456;42.680;23.260;2023-01-27T06:47:57;93742.69;;;1.97;100.00
12785;BME280;6456;42.680;23.260;2023-01-27T06:50:25;93758.59;;;2.09;100.00
12785;BME280;6456;42.680;23.260;2023-01-27T06:52:58;93789.53;;;2.25;100.00
12785;BME280;6456;42.680;23.260;2023-01-27T06:55:27;93785.50;;;2.22;100.00
12785;BME280;6456;42.680;23.260;2023-01-27T06:57:54;93787.19;;;2.30;100.00
12785;BME280;6456;42.680;23.260;2023-01-27T07:00:21;93792.03;;;2.33;100.00
12785;BME280;6456;42.680;23.260;2023-01-27T07:02:48;93783.78;;;2.29;100.00
12785;BME280;6456;42.680;23.260;2023-01-27T07:05:15;93770.56;;;2.24;100.00
12785;BME280;6456;42.680;23.260;2023-01-27T07:07:42;93760.72;;;2.20;100.00
12785;BME280;6456;42.680;23.260;2023-01-27T07:10:10;93800.59;;;2.48;100.00
12785;BME280;6456;42.680;23.260;2023-01-27T07:12:38;93758.28;;;2.18;100.00
12785;BME280;6456;42.680;23.260;2023-01-27T07:15:06;93805.38;;;2.51;100.00
12785;BME280;6456;42.680;23.260;2023-01-27T07:17:34;93793.31;;;2.43;100.00
12785;BME280;6456;42.680;23.260;2023-01-27T07:20:02;93799.56;;;2.49;100.00
12785;BME280;6456;42.680;23.260;2023-01-27T07:22:29;93800.66;;;2.54;100.00
12785;BME280;6456;42.680;23.260;2023-01-27T07:24:56;93779.72;;;2.41;100.00
12785;BME280;6456;42.680;23.260;2023-01-27T07:27:23;93792.59;;;2.49;100.00
12785;BME280;6456;42.680;23.260;2023-01-27T07:29:52;93710.19;;;2.01;100.00
12785;BME280;6456;42.680;23.260;2023-01-27T07:32:19;93798.50;;;2.58;100.00
12785;BME280;6456;42.680;23.260;2023-01-27T07:34:46;93795.97;;;2.65;100.00
12785;BME280;6456;42.680;23.260;2023-01-27T07:37:13;93757.72;;;2.37;100.00
12785;BME280;6456;42.680;23.260;2023-01-27T07:39:40;93805.34;;;2.66;100.00
12785;BME280;6456;42.680;23.260;2023-01-27T07:42:07;93811.59;;;2.71;100.00
12785;BME280;6456;42.680;23.260;2023-01-27T07:44:34;93804.34;;;2.67;100.00
12785;BME280;6456;42.680;23.260;2023-01-27T07:47:02;93806.84;;;2.75;100.00
12785;BME280;6456;42.680;23.260;2023-01-27T07:49:29;93793.25;;;2.73;100.00
12785;BME280;6456;42.680;23.260;2023-01-27T07:51:59;93786.53;;;2.64;100.00
12785;BME280;6456;42.680;23.260;2023-01-27T07:54:26;93776.78;;;2.66;100.00
12785;BME280;6456;42.680;23.260;2023-01-27T07:56:52;93815.94;;;2.85;100.00
12785;BME280;6456;42.680;23.260;2023-01-27T07:59:19;93784.81;;;2.71;100.00
12785;BME280;6456;42.680;23.260;2023-01-27T08:01:46;93814.25;;;2.99;100.00
12785;BME280;6456;42.680;23.260;2023-01-27T08:04:14;93807.97;;;3.08;100.00
12785;BME280;6456;42.680;23.260;2023-01-27T08:06:41;93803.00;;;3.13;100.00
12785;BME280;6456;42.680;23.260;2023-01-27T08:09:08;93727.19;;;2.60;100.00
12785;BME280;6456;42.680;23.260;2023-01-27T08:11:35;93796.69;;;3.01;100.00
12785;BME280;6456;42.680;23.260;2023-01-27T08:14:02;93754.91;;;2.75;100.00
12785;BME280;6456;42.680;23.260;2023-01-27T08:16:29;93780.31;;;3.00;100.00
12785;BME280;6456;42.680;23.260;2023-01-27T08:18:55;93742.03;;;2.67;100.00
12785;BME280;6456;42.680;23.260;2023-01-27T08:21:23;93785.69;;;2.78;100.00
12785;BME280;6456;42.680;23.260;2023-01-27T08:23:52;93788.34;;;2.84;100.00
12785;BME280;6456;42.680;23.260;2023-01-27T08:26:19;93782.03;;;2.51;100.00
12785;BME280;6456;42.680;23.260;2023-01-27T08:28:46;93797.19;;;2.69;100.00
12785;BME280;6456;42.680;23.260;2023-01-27T08:31:15;93770.09;;;2.35;100.00
12785;BME280;6456;42.680;23.260;2023-01-27T08:33:43;93814.84;;;2.58;100.00
12785;BME280;6456;42.680;23.260;2023-01-27T08:36:12;93762.75;;;2.24;100.00
12785;BME280;6456;42.680;23.260;2023-01-27T08:38:41;93804.28;;;2.24;100.00
12785;BME280;6456;42.680;23.260;2023-01-27T08:41:10;93794.38;;;2.28;100.00
12785;BME280;6456;42.680;23.260;2023-01-27T08:43:37;93817.75;;;2.49;100.00
12785;BME280;6456;42.680;23.260;2023-01-27T08:46:05;93796.47;;;2.39;100.00
12785;BME280;6456;42.680;23.260;2023-01-27T08:48:33;93830.28;;;2.60;100.00
12785;BME280;6456;42.680;23.260;2023-01-27T08:51:01;93804.00;;;2.34;100.00
12785;BME280;6456;42.680;23.260;2023-01-27T08:53:29;93801.25;;;2.35;100.00
12785;BME280;6456;42.680;23.260;2023-01-27T08:56:01;93817.63;;;2.21;100.00
12785;BME280;6456;42.680;23.260;2023-01-27T08:58:28;93786.44;;;2.00;100.00
12785;BME280;6456;42.680;23.260;2023-01-27T09:00:58;93824.44;;;2.22;100.00
12785;BME280;6456;42.680;23.260;2023-01-27T09:03:26;93826.03;;;2.23;100.00
12785;BME280;6456;42.680;23.260;2023-01-27T09:05:53;93837.13;;;2.32;100.00
12785;BME280;6456;42.680;23.260;2023-01-27T09:08:19;93821.25;;;2.41;100.00
12785;BME280;6456;42.680;23.260;2023-01-27T09:10:46;93803.66;;;2.37;100.00
12785;BME280;6456;42.680;23.260;2023-01-27T09:13:15;93812.03;;;2.39;100.00
12785;BME280;6456;42.680;23.260;2023-01-27T09:15:42;93811.38;;;2.51;100.00
12785;BME280;6456;42.680;23.260;2023-01-27T09:18:10;93814.59;;;2.53;100.00
12785;BME280;6456;42.680;23.260;2023-01-27T09:20:37;93771.16;;;2.26;100.00
12785;BME280;6456;42.680;23.260;2023-01-27T09:23:04;93824.31;;;2.66;100.00
12785;BME280;6456;42.680;23.260;2023-01-27T09:25:31;93801.72;;;2.60;100.00
12785;BME280;6456;42.680;23.260;2023-01-27T09:27:58;93797.84;;;2.56;100.00
12785;BME280;6456;42.680;23.260;2023-01-27T09:30:27;93812.03;;;2.75;100.00
12785;BME280;6456;42.680;23.260;2023-01-27T09:32:57;93808.38;;;2.69;100.00
12785;BME280;6456;42.680;23.260;2023-01-27T09:35:26;93810.00;;;2.70;100.00
12785;BME280;6456;42.680;23.260;2023-01-27T09:37:57;93793.97;;;2.67;100.00
12785;BME280;6456;42.680;23.260;2023-01-27T09:40:29;93779.38;;;2.66;100.00
12785;BME280;6456;42.680;23.260;2023-01-27T09:43:22;93794.84;;;2.74;100.00
12785;BME280;6456;42.680;23.260;2023-01-27T09:46:14;93769.94;;;2.58;100.00
12785;BME280;6456;42.680;23.260;2023-01-27T09:49:00;93798.25;;;2.74;100.00
12785;BME280;6456;42.680;23.260;2023-01-27T09:51:38;93776.34;;;2.62;100.00
12785;BME280;6456;42.680;23.260;2023-01-27T09:54:32;93773.91;;;2.60;100.00
12785;BME280;6456;42.680;23.260;2023-01-27T09:57:10;93777.53;;;2.59;100.00
12785;BME280;6456;42.680;23.260;2023-01-27T10:06:00;93768.72;;;2.60;100.00
12785;BME280;6456;42.680;23.260;2023-01-27T10:08:51;93754.81;;;2.68;100.00
12785;BME280;6456;42.680;23.260;2023-01-27T10:11:26;93734.34;;;2.58;100.00
12785;BME280;6456;42.680;23.260;2023-01-27T10:14:04;93743.75;;;2.59;100.00
12785;BME280;6456;42.680;23.260;2023-01-27T10:16:54;93741.53;;;2.56;100.00
12785;BME280;6456;42.680;23.260;2023-01-27T10:19:40;93705.31;;;2.27;100.00
12785;BME280;6456;42.680;23.260;2023-01-27T10:22:17;93754.63;;;2.48;100.00
12785;BME280;6456;42.680;23.260;2023-01-27T10:24:58;93749.44;;;2.48;100.00
12785;BME280;6456;42.680;23.260;2023-01-27T10:27:34;93744.13;;;2.35;100.00
12785;BME280;6456;42.680;23.260;2023-01-27T10:30:07;93750.56;;;2.39;100.00
12785;BME280;6456;42.680;23.260;2023-01-27T10:32:42;93752.03;;;2.48;100.00
12785;BME280;6456;42.680;23.260;2023-01-27T10:35:16;93745.25;;;2.47;100.00
12785;BME280;6456;42.680;23.260;2023-01-27T10:37:52;93741.84;;;2.47;100.00
12785;BME280;6456;42.680;23.260;2023-01-27T10:40:32;93750.69;;;2.52;100.00
12785;BME280;6456;42.680;23.260;2023-01-27T10:43:05;93747.38;;;2.23;100.00
12785;BME280;6456;42.680;23.260;2023-01-27T10:45:36;93749.53;;;2.19;100.00
12785;BME280;6456;42.680;23.260;2023-01-27T10:48:38;93742.44;;;2.28;100.00
12785;BME280;6456;42.680;23.260;2023-01-27T10:51:13;93735.09;;;2.31;100.00
12785;BME280;6456;42.680;23.260;2023-01-27T10:53:49;93725.56;;;2.17;100.00
12785;BME280;6456;42.680;23.260;2023-01-27T10:56:28;93751.69;;;2.16;100.00
12785;BME280;6456;42.680;23.260;2023-01-27T10:59:02;93692.88;;;1.87;100.00
12785;BME280;6456;42.680;23.260;2023-01-27T11:01:33;93742.97;;;2.23;100.00
12785;BME280;6456;42.680;23.260;2023-01-27T11:04:03;93737.53;;;2.18;100.00
12785;BME280;6456;42.680;23.260;2023-01-27T11:06:39;93748.75;;;2.40;100.00
12785;BME280;6456;42.680;23.260;2023-01-27T11:09:13;93729.09;;;2.31;100.00
12785;BME280;6456;42.680;23.260;2023-01-27T11:11:42;93737.22;;;2.42;100.00
12785;BME280;6456;42.680;23.260;2023-01-27T11:14:15;93745.97;;;2.41;100.00
12785;BME280;6456;42.680;23.260;2023-01-27T11:16:45;93708.25;;;2.24;100.00
12785;BME280;6456;42.680;23.260;2023-01-27T11:19:21;93740.38;;;2.38;100.00
12785;BME280;6456;42.680;23.260;2023-01-27T11:21:52;93742.75;;;2.39;100.00
12785;BME280;6456;42.680;23.260;2023-01-27T11:24:22;93746.53;;;2.37;100.00
12785;BME280;6456;42.680;23.260;2023-01-27T11:26:57;93683.03;;;1.97;100.00
12785;BME280;6456;42.680;23.260;2023-01-27T11:29:32;93735.59;;;2.20;100.00
12785;BME280;6456;42.680;23.260;2023-01-27T11:32:15;93738.25;;;2.27;100.00
12785;BME280;6456;42.680;23.260;2023-01-27T11:34:51;93733.00;;;2.20;100.00
12785;BME280;6456;42.680;23.260;2023-01-27T11:37:30;93717.00;;;2.02;100.00
12785;BME280;6456;42.680;23.260;2023-01-27T11:39:57;93725.47;;;2.11;100.00
12785;BME280;6456;42.680;23.260;2023-01-27T11:42:28;93722.25;;;2.09;100.00
12785;BME280;6456;42.680;23.260;2023-01-27T11:44:57;93719.09;;;2.13;100.00
12785;BME280;6456;42.680;23.260;2023-01-27T11:47:29;93702.69;;;2.06;100.00
12785;BME280;6456;42.680;23.260;2023-01-27T11:49:57;93717.22;;;2.22;100.00
12785;BME280;6456;42.680;23.260;2023-01-27T11:52:27;93699.53;;;2.11;100.00
12785;BME280;6456;42.680;23.260;2023-01-27T11:55:00;93703.53;;;2.13;100.00
12785;BME280;6456;42.680;23.260;2023-01-27T11:57:33;93713.56;;;2.16;100.00
12785;BME280;6456;42.680;23.260;2023-01-27T12:00:04;93720.00;;;2.20;100.00
12785;BME280;6456;42.680;23.260;2023-01-27T12:02:35;93683.03;;;1.97;100.00
12785;BME280;6456;42.680;23.260;2023-01-27T12:05:07;93697.56;;;2.13;100.00
12785;BME280;6456;42.680;23.260;2023-01-27T12:07:48;93712.47;;;2.25;100.00
12785;BME280;6456;42.680;23.260;2023-01-27T12:10:23;93720.88;;;2.27;100.00
12785;BME280;6456;42.680;23.260;2023-01-27T12:12:50;93726.97;;;2.20;100.00
12785;BME280;6456;42.680;23.260;2023-01-27T12:15:17;93676.56;;;1.93;100.00
12785;BME280;6456;42.680;23.260;2023-01-27T12:17:46;93669.94;;;1.69;100.00
12785;BME280;6456;42.680;23.260;2023-01-27T12:20:29;93697.78;;;1.97;100.00
12785;BME280;6456;42.680;23.260;2023-01-27T12:23:01;93705.88;;;2.08;100.00
12785;BME280;6456;42.680;23.260;2023-01-27T12:25:32;93681.75;;;1.93;100.00
12785;BME280;6456;42.680;23.260;2023-01-27T12:28:20;93669.06;;;1.98;100.00
12785;BME280;6456;42.680;23.260;2023-01-27T12:30:50;93670.38;;;2.09;100.00
12785;BME280;6456;42.680;23.260;2023-01-27T12:33:23;93715.81;;;2.62;100.00
12785;BME280;6456;42.680;23.260;2023-01-27T12:35:56;93633.22;;;2.08;100.00
12785;BME280;6456;42.680;23.260;2023-01-27T12:38:28;93729.34;;;2.78;100.00
12785;BME280;6456;42.680;23.260;2023-01-27T12:41:01;93689.88;;;2.40;100.00
12785;BME280;6456;42.680;23.260;2023-01-27T12:43:29;93659.41;;;2.28;100.00
12785;BME280;6456;42.680;23.260;2023-01-27T12:46:19;93723.66;;;2.68;100.00
12785;BME280;6456;42.680;23.260;2023-01-27T12:48:47;93710.97;;;2.58;100.00
12785;BME280;6456;42.680;23.260;2023-01-27T12:51:18;93729.09;;;2.73;100.00
12785;BME280;6456;42.680;23.260;2023-01-27T12:53:48;93685.16;;;2.50;100.00
12785;BME280;6456;42.680;23.260;2023-01-27T12:56:17;93692.31;;;2.70;100.00
12785;BME280;6456;42.680;23.260;2023-01-27T12:58:45;93668.81;;;2.56;100.00
12785;BME280;6456;42.680;23.260;2023-01-27T13:01:23;93676.53;;;2.71;100.00
12785;BME280;6456;42.680;23.260;2023-01-27T13:03:53;93722.28;;;2.93;100.00
12785;BME280;6456;42.680;23.260;2023-01-27T13:06:29;93686.75;;;2.73;100.00
12785;BME280;6456;42.680;23.260;2023-01-27T13:08:59;93720.84;;;2.91;100.00
12785;BME280;6456;42.680;23.260;2023-01-27T13:11:34;93705.69;;;2.94;100.00
12785;BME280;6456;42.680;23.260;2023-01-27T13:14:07;93707.44;;;2.87;100.00
12785;BME280;6456;42.680;23.260;2023-01-27T13:16:33;93720.22;;;2.89;100.00
12785;BME280;6456;42.680;23.260;2023-01-27T13:19:00;93720.84;;;2.91;100.00
12785;BME280;6456;42.680;23.260;2023-01-27T13:21:32;93720.13;;;2.76;100.00
12785;BME280;6456;42.680;23.260;2023-01-27T13:24:20;93727.66;;;2.71;100.00
12785;BME280;6456;42.680;23.260;2023-01-27T13:26:50;93719.53;;;2.52;100.00